Flight Track Log - Related Links

Times and Time Zones

All times are in EST time to prevent confusion due to time zone crossing. See the AFL150 flight status page for this flight to view local times or setup timezone preferences in your user account.

Time Position Orientation Groundspeed Altitude Reporting Facility
EST Latitude Longitude Course Direction KTS MPH feet Rate Location/Type
Thu 04:48:00 AM 56.0506 37.1448 307° West  Level Estimated
Thu 04:49:00 AM 56.1238 36.9678 307° West  Level Estimated
Thu 04:50:00 AM 56.1967 36.7901 306° West  Level Estimated
Thu 04:51:00 AM 56.2693 36.6118 306° West  Level Estimated
Thu 04:52:00 AM 56.3417 36.4328 306° West  Level Estimated
Thu 04:53:00 AM 56.4138 36.2531 306° West  Level Estimated
Thu 04:54:00 AM 56.4856 36.0727 306° West  Level Estimated
Thu 04:55:00 AM 56.5573 35.8916 306° West  Level Estimated
Thu 04:56:00 AM 56.6286 35.7099 306° West  Level Estimated
Thu 04:57:00 AM 56.6996 35.5275 305° West  Level Estimated
Thu 04:58:00 AM 56.7705 35.3443 305° West  Level Estimated
Thu 04:59:00 AM 56.8410 35.1605 305° West  Level Estimated
Thu 05:00:00 AM 56.9112 34.9760 305° West  Level Estimated
Thu 05:01:00 AM 56.9812 34.7908 305° West  Level Estimated
Thu 05:02:00 AM 57.0509 34.6049 305° West  Level Estimated
Thu 05:03:00 AM 57.1204 34.4183 304° West  Level Estimated
Thu 05:04:00 AM 57.1895 34.2310 304° West  Level Estimated
Thu 05:05:00 AM 57.2584 34.0430 304° West  Level Estimated
Thu 05:06:00 AM 57.3270 33.8543 304° West  Level Estimated
Thu 05:07:00 AM 57.3953 33.6649 304° West  Level Estimated
Thu 05:08:00 AM 57.4634 33.4748 304° West  Level Estimated
Thu 05:09:00 AM 57.5311 33.2840 304° West  Level Estimated
Thu 05:10:00 AM 57.5985 33.0924 303° West  Level Estimated
Thu 05:11:00 AM 57.6657 32.9002 303° West  Level Estimated
Thu 05:12:00 AM 57.7326 32.7073 303° West  Level Estimated
Thu 05:13:00 AM 57.7991 32.5136 303° West  Level Estimated
Thu 05:14:00 AM 57.8654 32.3192 303° West  Level Estimated
Thu 05:15:00 AM 57.9314 32.1241 303° West  Level Estimated
Thu 05:16:00 AM 57.9971 31.9283 302° West  Level Estimated
Thu 05:17:00 AM 58.0625 31.7318 302° West  Level Estimated
Thu 05:18:00 AM 58.1275 31.5345 302° West  Level Estimated
Thu 05:18:51 AM 56.5242 31.4550 302° West 426 490 34,000  Level FlightAware ADS-B
Thu 05:19:51 AM 56.5537 31.1864 281° West 435 501 34,000  Level FlightAware ADS-B
Thu 05:20:44 AM 56.6109 30.9615 295° West 444 511 34,000  Level FlightAware ADS-B
Thu 05:21:49 AM 56.6835 30.7888 307° West 450 518 34,000  Level FlightAware ADS-B
Thu 05:22:50 AM 56.7579 30.6092 307° West 445 512 34,000  Level FlightAware ADS-B
Thu 05:23:49 AM 56.8232 30.4375 305° West 444 511 34,000  Level FlightAware ADS-B
Thu 05:26:46 AM 57.0400 29.8452 301° West 444 511 34,000  Level FlightAware ADS-B
Thu 05:27:53 AM 57.1153 29.6362 304° West 445 512 34,000  Level FlightAware ADS-B
Thu 05:28:52 AM 57.1824 29.4479 303° West 447 514 34,000  Level FlightAware ADS-B
Thu 05:29:50 AM 57.2457 29.2694 303° West 447 514 34,000  Level FlightAware ADS-B
Thu 05:30:52 AM 57.3141 29.0749 303° West 449 517 34,000  Level FlightAware ADS-B
Thu 05:31:51 AM 57.3805 28.8849 303° West 452 520 34,000  Level FlightAware ADS-B
Thu 05:32:51 AM 57.4501 28.6838 303° West 453 521 34,000  Level FlightAware ADS-B
Thu 05:33:53 AM 57.5207 28.4783 303° West 454 522 34,000  Level FlightAware ADS-B
Thu 05:34:51 AM 57.5855 28.2882 303° West 453 521 34,000  Level FlightAware ADS-B
Thu 05:35:37 AM 57.6333 28.1471 302° West 453 521 34,000  Level FlightAware ADS-B
Thu 05:37:52 AM 57.7865 27.6891 302° West 450 518 34,000  Level FlightAware ADS-B
Thu 05:38:52 AM 57.8448 27.4944 299° West 442 509 34,000  Level FlightAware ADS-B
Thu 05:39:52 AM 57.8878 27.2720 290° West 442 509 34,000  Level FlightAware ADS-B
Thu 05:40:53 AM 57.9291 27.0536 290° West 443 510 34,000  Level FlightAware ADS-B
Thu 05:41:52 AM 57.9698 26.8364 290° West 449 517 34,000  Level FlightAware ADS-B
Thu 05:42:50 AM 58.0054 26.6443 289° West 448 516 34,000  Level FlightAware ADS-B
Thu 05:43:51 AM 58.0504 26.3992 289° West 449 517 34,000  Level FlightAware ADS-B
Thu 05:44:52 AM 58.0911 26.1742 289° West 452 520 34,000  Level FlightAware ADS-B
Thu 05:45:52 AM 58.1315 25.9485 289° West 454 522 34,000  Level FlightAware ADS-B
Thu 05:46:52 AM 58.1687 25.7379 289° West 454 522 34,000  Level FlightAware ADS-B
Thu 05:47:52 AM 58.2104 25.4989 288° West 454 522 34,000  Level FlightAware ADS-B
Thu 05:48:42 AM 58.2428 25.3112 288° West 452 520 34,000  Level FlightAware ADS-B
Thu 06:03:46 AM 58.6174 22.9824 294° West 449 517 34,000  Level FlightAware ADS-B
Thu 06:09:15 AM 58.9687 20.6293 294° West 449 517 34,000  Level FlightAware ADS-B
Thu 06:09:56 AM 58.9944 20.4734 288° West 454 522 34,000  Level FlightAware ADS-B
Thu 06:10:36 AM 59.0174 20.3331 288° West 454 522 34,000  Level FlightAware ADS-B
Thu 06:11:14 AM 59.0439 20.1702 288° West 454 522 34,000  Level FlightAware ADS-B
Thu 06:11:55 AM 59.0693 20.0130 287° West 456 525 34,000  Level FlightAware ADS-B
Thu 06:12:35 AM 59.0937 19.8599 287° West 456 525 34,000  Level FlightAware ADS-B
Thu 06:13:15 AM 59.1195 19.6971 287° West 457 526 34,000  Level FlightAware ADS-B
Thu 06:13:56 AM 59.1444 19.5379 287° West 459 528 34,000  Level FlightAware ADS-B
Thu 06:14:36 AM 59.1688 19.3815 287° West 458 527 34,000  Level FlightAware ADS-B
Thu 06:15:15 AM 59.1930 19.2241 287° West 459 528 34,000  Level FlightAware ADS-B
Thu 06:15:56 AM 59.2168 19.0679 287° West 459 528 34,000  Level FlightAware ADS-B
Thu 06:16:36 AM 59.2411 18.9069 287° West 458 527 34,000  Level FlightAware ADS-B
Thu 06:17:16 AM 59.2651 18.7470 286° West 456 525 34,000  Level FlightAware ADS-B
Thu 06:17:56 AM 59.2882 18.5907 286° West 456 525 34,000  Level FlightAware ADS-B
Thu 06:18:36 AM 59.3114 18.4325 286° West 455 524 34,000  Level FlightAware ADS-B
Thu 06:19:16 AM 59.3338 18.2787 286° West 453 521 34,000  Level FlightAware ADS-B
Thu 06:19:55 AM 59.3561 18.1240 286° West 454 522 34,000  Level FlightAware ADS-B
Thu 06:20:35 AM 59.3781 17.9694 286° West 451 519 34,000  Level FlightAware ADS-B
Thu 06:21:15 AM 59.4010 17.8075 286° West 447 514 34,000  Level FlightAware ADS-B
Thu 06:21:56 AM 59.4209 17.6649 285° West 445 512 34,000  Level FlightAware ADS-B
Thu 06:22:36 AM 59.4440 17.4981 285° West 442 509 34,000  Level FlightAware ADS-B
Thu 06:23:08 AM 59.4603 17.3793 285° West 442 509 34,000  Level FlightAware ADS-B
Thu 06:23:56 AM 59.4868 17.1836 285° West 442 509 34,000  Level FlightAware ADS-B
Thu 06:24:33 AM 59.5052 17.0468 285° West 443 510 34,000  Level FlightAware ADS-B
Thu 06:25:16 AM 59.5281 16.8759 285° West 445 512 34,000  Level FlightAware ADS-B
Thu 06:25:56 AM 59.5487 16.7186 285° West 447 514 34,000  Level FlightAware ADS-B
Thu 06:26:34 AM 59.5685 16.5674 285° West 448 516 34,000  Level FlightAware ADS-B
Thu 06:27:16 AM 59.5898 16.4021 284° West 450 518 34,000  Level FlightAware ADS-B
Thu 06:27:56 AM 59.6092 16.2494 284° West 451 519 34,000  Level FlightAware ADS-B
Thu 06:28:31 AM 59.6280 16.1007 284° West 452 520 34,000  Level FlightAware ADS-B
Thu 06:28:50 AM 59.6380 16.0213 284° West 454 522 34,000  Level FlightAware ADS-B
Thu 06:29:12 AM 59.6491 15.9327 284° West 455 524 34,000  Level FlightAware ADS-B
Thu 06:29:43 AM 59.6648 15.8058 284° West 456 525 34,000  Level FlightAware ADS-B
Thu 06:30:15 AM 59.6806 15.6766 284° West 457 526 34,000  Level FlightAware ADS-B
Thu 06:31:01 AM 59.7034 15.4883 284° West 458 527 34,000  Level FlightAware ADS-B
Thu 06:31:32 AM 59.7183 15.3644 283° West 460 529 34,000  Level FlightAware ADS-B
Thu 06:32:16 AM 59.7402 15.1805 283° West 460 529 34,000  Level FlightAware ADS-B
Thu 06:32:46 AM 59.7545 15.0580 283° West 459 528 34,000  Level FlightAware ADS-B
Thu 06:33:16 AM 59.7687 14.9353 283° West 459 528 34,000  Level FlightAware ADS-B
Thu 06:33:46 AM 59.7832 14.8098 283° West 460 529 34,000  Level FlightAware ADS-B
Thu 06:34:31 AM 59.8040 14.6269 283° West 463 533 34,000  Level FlightAware ADS-B
Thu 06:35:02 AM 59.8172 14.4996 282° West 461 531 34,000  Level FlightAware ADS-B
Thu 06:35:46 AM 59.8356 14.3131 281° West 461 531 34,000  Level FlightAware ADS-B
Thu 06:36:17 AM 59.8480 14.1883 281° West 460 529 34,000  Level FlightAware ADS-B
Thu 06:36:47 AM 59.8600 14.0656 281° West 461 531 34,000  Level FlightAware ADS-B
Thu 06:37:17 AM 59.8725 13.9383 281° West 460 529 34,000  Level FlightAware ADS-B
Thu 06:38:02 AM 59.8906 13.7513 281° West 460 529 34,000  Level FlightAware ADS-B
Thu 06:38:33 AM 59.9028 13.6231 281° West 458 527 34,000  Level FlightAware ADS-B
Thu 06:39:08 AM 59.9166 13.4762 281° West 457 526 34,000  Level FlightAware ADS-B
Thu 06:39:46 AM 59.9311 13.3199 281° West 455 524 34,000  Level FlightAware ADS-B
Thu 06:41:20 AM 59.9659 12.9356 280° West 453 521 34,000 86 Level FlightAware ADS-B
Thu 07:02:55 AM 60.6423 7.6107 282° West 457 526 36,000 90 Climbing FlightAware ADS-B
Thu 07:03:36 AM 60.6600 7.4397 282° West 463 533 36,000  Level FlightAware ADS-B
Thu 07:04:15 AM 60.6773 7.2734 282° West 464 534 36,000  Level FlightAware ADS-B
Thu 07:04:57 AM 60.6956 7.0941 282° West 465 535 36,000  Level FlightAware ADS-B
Thu 07:05:37 AM 60.7129 6.9220 282° West 461 531 36,000  Level FlightAware ADS-B
Thu 07:06:16 AM 60.7294 6.7546 281° West 459 528 36,000  Level FlightAware ADS-B
Thu 07:06:56 AM 60.7458 6.5857 281° West 462 532 36,000  Level FlightAware ADS-B
Thu 07:07:36 AM 60.7623 6.4153 281° West 461 531 36,000  Level FlightAware ADS-B
Thu 07:08:16 AM 60.7787 6.2423 281° West 461 531 36,000  Level FlightAware ADS-B
Thu 07:08:55 AM 60.7941 6.0780 281° West 462 532 36,000  Level FlightAware ADS-B
Thu 07:09:37 AM 60.8106 5.8982 281° West 461 531 36,000  Level FlightAware ADS-B
Thu 07:10:16 AM 60.8259 5.7305 281° West 464 534 36,000  Level FlightAware ADS-B
Thu 07:10:55 AM 60.8410 5.5615 281° West 463 533 36,000  Level FlightAware ADS-B
Thu 07:13:00 AM 60.8844 5.0432 280° West  Level Estimated
Thu 07:14:00 AM 60.9045 4.7940 280° West  Level Estimated
Thu 07:15:00 AM 60.9241 4.5444 279° West  Level Estimated
Thu 07:16:00 AM 60.9433 4.2946 279° West  Level Estimated
Thu 07:17:00 AM 60.9621 4.0444 279° West  Level Estimated
Thu 07:18:00 AM 60.9803 3.7940 279° West  Level Estimated
Thu 07:19:00 AM 60.9981 3.5433 278° West  Level Estimated
Thu 07:20:00 AM 61.0154 3.2923 278° West  Level Estimated
Thu 07:21:00 AM 61.0323 3.0410 278° West  Level Estimated
Thu 07:22:00 AM 61.0486 2.7894 278° West  Level Estimated
Thu 07:23:00 AM 61.0646 2.5377 278° West  Level Estimated
Thu 07:24:00 AM 61.0800 2.2856 277° West  Level Estimated
Thu 07:25:00 AM 61.0950 2.0333 277° West  Level Estimated
Thu 07:26:00 AM 61.1095 1.7808 277° West  Level Estimated
Thu 07:27:00 AM 61.1236 1.5280 277° West  Level Estimated
Thu 07:28:00 AM 61.1371 1.2751 276° West  Level Estimated
Thu 07:29:00 AM 61.1502 1.0219 276° West  Level Estimated
Thu 07:30:00 AM 61.1628 0.7685 276° West  Level Estimated
Thu 07:31:00 AM 61.1750 0.5149 276° West  Level Estimated
Thu 07:32:00 AM 61.1866 0.2611 276° West  Level Estimated
Thu 07:33:00 AM 61.1978 0.0072 275° West  Level Estimated
Thu 07:34:00 AM 61.2086 -0.2470 275° West  Level Estimated
Thu 07:35:00 AM 61.2188 -0.5013 275° West  Level Estimated
Thu 07:36:00 AM 61.2286 -0.7558 275° West  Level Estimated
Thu 07:37:00 AM 61.2379 -1.0104 274° West  Level Estimated
Thu 07:38:00 AM 61.2467 -1.2651 274° West  Level Estimated
Thu 07:39:00 AM 61.2550 -1.5201 274° West  Level Estimated
Thu 07:40:00 AM 61.2629 -1.7751 274° West  Level Estimated
Thu 07:41:00 AM 61.2703 -2.0303 274° West  Level Estimated
Thu 07:42:00 AM 61.2772 -2.2856 273° West  Level Estimated
Thu 07:43:00 AM 61.2836 -2.5410 273° West  Level Estimated
Thu 07:44:00 AM 61.2895 -2.7964 273° West  Level Estimated
Thu 07:45:00 AM 61.2950 -3.0520 273° West  Level Estimated
Thu 07:46:00 AM 61.3000 -3.3077 272° West  Level Estimated
Thu 07:47:00 AM 61.3045 -3.5635 272° West  Level Estimated
Thu 07:48:00 AM 61.3085 -3.8193 272° West  Level Estimated
Thu 07:49:00 AM 61.3120 -4.0752 272° West  Level Estimated
Thu 07:50:00 AM 61.3151 -4.3311 272° West  Level Estimated
Thu 07:51:00 AM 61.3176 -4.5871 271° West  Level Estimated
Thu 07:52:00 AM 61.3197 -4.8431 271° West  Level Estimated
Thu 07:53:00 AM 61.3213 -5.0991 271° West  Level Estimated
Thu 07:54:00 AM 61.3225 -5.3552 271° West  Level Estimated
Thu 07:55:00 AM 61.3231 -5.6113 270° West  Level Estimated
Thu 07:56:00 AM 61.3233 -5.8674 270° West  Level Estimated
Thu 07:57:00 AM 61.3230 -6.1235 270° West  Level Estimated
Thu 07:58:00 AM 61.3222 -6.3795 270° West  Level Estimated
Thu 07:59:00 AM 61.3209 -6.6356 270° West  Level Estimated
Thu 08:00:00 AM 61.3191 -6.8916 269° West  Level Estimated
Thu 08:01:00 AM 61.3169 -7.1476 269° West  Level Estimated
Thu 08:02:00 AM 61.3142 -7.4036 269° West  Level Estimated
Thu 08:03:00 AM 61.3109 -7.6595 269° West  Level Estimated
Thu 08:04:00 AM 61.3073 -7.9154 268° West  Level Estimated
Thu 08:05:00 AM 61.3031 -8.1712 268° West  Level Estimated
Thu 08:06:00 AM 61.2984 -8.4269 268° West  Level Estimated
Thu 08:07:00 AM 61.2933 -8.6826 268° West  Level Estimated
Thu 08:08:00 AM 61.2877 -8.9381 267° West  Level Estimated
Thu 08:09:00 AM 61.2816 -9.1936 267° West  Level Estimated
Thu 08:10:00 AM 61.2750 -9.4490 267° West  Level Estimated
Thu 08:11:00 AM 61.2680 -9.7042 267° West  Level Estimated
Thu 08:12:00 AM 61.2604 -9.9593 267° West  Level Estimated
Thu 08:13:00 AM 61.2524 -10.2143 266° West  Level Estimated
Thu 08:14:00 AM 61.2439 -10.4692 266° West  Level Estimated
Thu 08:15:00 AM 61.2350 -10.7239 266° West  Level Estimated
Thu 08:16:00 AM 61.2255 -10.9785 266° West  Level Estimated
Thu 08:17:00 AM 61.2156 -11.2329 265° West  Level Estimated
Thu 08:18:00 AM 61.2052 -11.4872 265° West  Level Estimated
Thu 08:19:00 AM 61.1944 -11.7413 265° West  Level Estimated
Thu 08:20:00 AM 61.1830 -11.9952 265° West  Level Estimated
Thu 08:21:00 AM 61.1712 -12.2489 265° West  Level Estimated
Thu 08:22:00 AM 61.1589 -12.5024 264° West  Level Estimated
Thu 08:23:00 AM 61.1461 -12.7558 264° West  Level Estimated
Thu 08:24:00 AM 61.1329 -13.0089 264° West  Level Estimated
Thu 08:25:00 AM 61.1191 -13.2618 264° West  Level Estimated
Thu 08:26:00 AM 61.1050 -13.5145 263° West  Level Estimated
Thu 08:27:00 AM 61.0903 -13.7669 263° West  Level Estimated
Thu 08:28:00 AM 61.0752 -14.0191 263° West  Level Estimated
Thu 08:29:00 AM 61.0596 -14.2711 263° West  Level Estimated
Thu 08:30:00 AM 61.0435 -14.5228 263° West  Level Estimated
Thu 08:31:00 AM 61.0270 -14.7743 262° West  Level Estimated
Thu 08:32:00 AM 61.0100 -15.0255 262° West  Level Estimated
Thu 08:33:00 AM 60.9925 -15.2764 262° West  Level Estimated
Thu 08:34:00 AM 60.9746 -15.5270 262° West  Level Estimated
Thu 08:35:00 AM 60.9562 -15.7774 261° West  Level Estimated
Thu 08:36:00 AM 60.9373 -16.0274 261° West  Level Estimated
Thu 08:37:00 AM 60.9180 -16.2772 261° West  Level Estimated
Thu 08:38:00 AM 60.8982 -16.5266 261° West  Level Estimated
Thu 08:39:00 AM 60.8779 -16.7758 261° West  Level Estimated
Thu 08:40:00 AM 60.8572 -17.0246 260° West  Level Estimated
Thu 08:41:00 AM 60.8360 -17.2731 260° West  Level Estimated
Thu 08:42:00 AM 60.8144 -17.5213 260° West  Level Estimated
Thu 08:43:00 AM 60.7923 -17.7691 260° West  Level Estimated
Thu 08:44:00 AM 60.7698 -18.0166 260° West  Level Estimated
Thu 08:45:00 AM 60.7468 -18.2637 259° West  Level Estimated
Thu 08:46:00 AM 60.7234 -18.5105 259° West  Level Estimated
Thu 08:47:00 AM 60.6995 -18.7569 259° West  Level Estimated
Thu 08:48:00 AM 60.6751 -19.0029 259° West  Level Estimated
Thu 08:49:00 AM 60.6503 -19.2486 258° West  Level Estimated
Thu 08:50:00 AM 60.6251 -19.4939 258° West  Level Estimated
Thu 08:51:00 AM 60.5994 -19.7387 258° West  Level Estimated
Thu 08:52:00 AM 60.5732 -19.9832 258° West  Level Estimated
Thu 08:53:00 AM 60.5466 -20.2273 258° West  Level Estimated
Thu 08:54:00 AM 60.5196 -20.4710 257° West  Level Estimated
Thu 08:55:00 AM 60.4921 -20.7143 257° West  Level Estimated
Thu 08:56:00 AM 60.4642 -20.9572 257° West  Level Estimated
Thu 08:57:00 AM 60.4358 -21.1996 257° West  Level Estimated
Thu 08:58:00 AM 60.4070 -21.4417 257° West  Level Estimated
Thu 08:59:00 AM 60.3778 -21.6833 256° West  Level Estimated
Thu 09:00:00 AM 60.3481 -21.9244 256° West  Level Estimated
Thu 09:01:00 AM 60.3180 -22.1651 256° West  Level Estimated
Thu 09:02:00 AM 60.2874 -22.4054 256° West  Level Estimated
Thu 09:03:00 AM 60.2565 -22.6452 256° West  Level Estimated
Thu 09:04:00 AM 60.2251 -22.8846 255° West  Level Estimated
Thu 09:05:00 AM 60.1932 -23.1235 255° West  Level Estimated
Thu 09:06:00 AM 60.1609 -23.3619 255° West  Level Estimated
Thu 09:07:00 AM 60.1282 -23.5999 255° West  Level Estimated
Thu 09:08:00 AM 60.0951 -23.8374 254° West  Level Estimated
Thu 09:09:00 AM 60.0616 -24.0744 254° West  Level Estimated
Thu 09:10:00 AM 60.0276 -24.3109 254° West  Level Estimated
Thu 09:11:00 AM 59.9932 -24.5469 254° West  Level Estimated
Thu 09:12:00 AM 59.9584 -24.7825 254° West  Level Estimated
Thu 09:13:00 AM 59.9232 -25.0175 253° West  Level Estimated
Thu 09:14:00 AM 59.8875 -25.2521 253° West  Level Estimated
Thu 09:15:00 AM 59.8515 -25.4861 253° West  Level Estimated
Thu 09:16:00 AM 59.8150 -25.7196 253° West  Level Estimated
Thu 09:17:00 AM 59.7781 -25.9526 253° West  Level Estimated
Thu 09:18:00 AM 59.7408 -26.1851 252° West  Level Estimated
Thu 09:19:00 AM 59.7031 -26.4171 252° West  Level Estimated
Thu 09:20:00 AM 59.6650 -26.6485 252° West  Level Estimated
Thu 09:21:00 AM 59.6264 -26.8795 252° West  Level Estimated
Thu 09:22:00 AM 59.5875 -27.1098 252° West  Level Estimated
Thu 09:23:00 AM 59.5481 -27.3397 251° West  Level Estimated
Thu 09:24:00 AM 59.5084 -27.5690 251° West  Level Estimated
Thu 09:25:00 AM 59.4683 -27.7978 251° West  Level Estimated
Thu 09:26:00 AM 59.4277 -28.0260 251° West  Level Estimated
Thu 09:27:00 AM 59.3868 -28.2537 251° West  Level Estimated
Thu 09:28:00 AM 59.3455 -28.4808 250° West  Level Estimated
Thu 09:29:00 AM 59.3037 -28.7074 250° West  Level Estimated
Thu 09:30:00 AM 59.2616 -28.9334 250° West  Level Estimated
Thu 09:31:00 AM 59.2191 -29.1588 250° West  Level Estimated
Thu 09:32:00 AM 59.1762 -29.3837 250° West  Level Estimated
Thu 09:33:00 AM 59.1329 -29.6081 249° West  Level Estimated
Thu 09:34:00 AM 59.0893 -29.8318 249° West  Level Estimated
Thu 09:35:00 AM 59.0452 -30.0550 249° West  Level Estimated
Thu 09:36:00 AM 59.0008 -30.2776 249° West  Level Estimated
Thu 09:37:00 AM 58.9560 -30.4996 249° West  Level Estimated
Thu 09:38:00 AM 58.9108 -30.7211 249° West  Level Estimated
Thu 09:39:00 AM 58.8652 -30.9419 248° West  Level Estimated
Thu 09:40:00 AM 58.8192 -31.1622 248° West  Level Estimated
Thu 09:41:00 AM 58.7729 -31.3819 248° West  Level Estimated
Thu 09:42:00 AM 58.7262 -31.6011 248° West  Level Estimated
Thu 09:43:00 AM 58.6791 -31.8196 248° West  Level Estimated
Thu 09:44:00 AM 58.6317 -32.0375 247° West  Level Estimated
Thu 09:45:00 AM 58.5839 -32.2549 247° West  Level Estimated
Thu 09:46:00 AM 58.5357 -32.4716 247° West  Level Estimated
Thu 09:47:00 AM 58.4872 -32.6878 247° West  Level Estimated
Thu 09:48:00 AM 58.4383 -32.9033 247° West  Level Estimated
Thu 09:49:00 AM 58.3890 -33.1183 246° West  Level Estimated
Thu 09:50:00 AM 58.3394 -33.3326 246° West  Level Estimated
Thu 09:51:00 AM 58.2895 -33.5463 246° West  Level Estimated
Thu 09:52:00 AM 58.2391 -33.7595 246° West  Level Estimated
Thu 09:53:00 AM 58.1884 -33.9720 246° West  Level Estimated
Thu 09:54:00 AM 58.1374 -34.1839 246° West  Level Estimated
Thu 09:55:00 AM 58.0860 -34.3953 245° Southwest  Level Estimated
Thu 09:56:00 AM 58.0343 -34.6060 245° Southwest  Level Estimated
Thu 09:57:00 AM 57.9822 -34.8161 245° Southwest  Level Estimated
Thu 09:58:00 AM 57.9298 -35.0256 245° Southwest  Level Estimated
Thu 09:59:00 AM 57.8770 -35.2344 245° Southwest  Level Estimated
Thu 10:00:00 AM 57.8239 -35.4427 244° Southwest  Level Estimated
Thu 10:01:00 AM 57.7705 -35.6503 244° Southwest  Level Estimated
Thu 10:02:00 AM 57.7167 -35.8574 244° Southwest  Level Estimated
Thu 10:03:00 AM 57.6626 -36.0638 244° Southwest  Level Estimated
Thu 10:04:00 AM 57.6081 -36.2696 244° Southwest  Level Estimated
Thu 10:05:00 AM 57.5533 -36.4748 244° Southwest  Level Estimated
Thu 10:06:00 AM 57.4982 -36.6793 243° Southwest  Level Estimated
Thu 10:07:00 AM 57.4427 -36.8833 243° Southwest  Level Estimated
Thu 10:08:00 AM 57.3869 -37.0866 243° Southwest  Level Estimated
Thu 10:09:00 AM 57.3308 -37.2893 243° Southwest  Level Estimated
Thu 10:10:00 AM 57.2744 -37.4914 243° Southwest  Level Estimated
Thu 10:11:00 AM 57.2176 -37.6928 243° Southwest  Level Estimated
Thu 10:12:00 AM 57.1605 -37.8937 242° Southwest  Level Estimated
Thu 10:13:00 AM 57.1031 -38.0939 242° Southwest  Level Estimated
Thu 10:14:00 AM 57.0454 -38.2935 242° Southwest  Level Estimated
Thu 10:15:00 AM 56.9874 -38.4925 242° Southwest  Level Estimated
Thu 10:16:00 AM 56.9290 -38.6908 242° Southwest  Level Estimated
Thu 10:17:00 AM 56.8704 -38.8886 242° Southwest  Level Estimated
Thu 10:18:00 AM 56.8114 -39.0857 241° Southwest  Level Estimated
Thu 10:19:00 AM 56.7521 -39.2822 241° Southwest  Level Estimated
Thu 10:20:00 AM 56.6925 -39.4780 241° Southwest  Level Estimated
Thu 10:21:00 AM 56.6326 -39.6733 241° Southwest  Level Estimated
Thu 10:22:00 AM 56.5724 -39.8679 241° Southwest  Level Estimated
Thu 10:23:00 AM 56.5119 -40.0619 241° Southwest  Level Estimated
Thu 10:24:00 AM 56.4511 -40.2553 240° Southwest  Level Estimated
Thu 10:25:00 AM 56.3900 -40.4481 240° Southwest  Level Estimated
Thu 10:26:00 AM 56.3286 -40.6402 240° Southwest  Level Estimated
Thu 10:27:00 AM 56.2669 -40.8318 240° Southwest  Level Estimated
Thu 10:28:00 AM 56.2049 -41.0227 240° Southwest  Level Estimated
Thu 10:29:00 AM 56.1426 -41.2130 240° Southwest  Level Estimated
Thu 10:30:00 AM 56.0800 -41.4027 239° Southwest  Level Estimated
Thu 10:31:00 AM 56.0172 -41.5917 239° Southwest  Level Estimated
Thu 10:32:00 AM 55.9540 -41.7802 239° Southwest  Level Estimated
Thu 10:33:00 AM 55.8905 -41.9680 239° Southwest  Level Estimated
Thu 10:34:00 AM 55.8268 -42.1552 239° Southwest  Level Estimated
Thu 10:35:00 AM 55.7628 -42.3418 239° Southwest  Level Estimated
Thu 10:36:00 AM 55.6985 -42.5278 239° Southwest  Level Estimated
Thu 10:37:00 AM 55.6339 -42.7132 238° Southwest  Level Estimated
Thu 10:38:00 AM 55.5691 -42.8980 238° Southwest  Level Estimated
Thu 10:39:00 AM 55.5039 -43.0821 238° Southwest  Level Estimated
Thu 10:40:00 AM 55.4385 -43.2657 238° Southwest  Level Estimated
Thu 10:41:00 AM 55.3729 -43.4486 238° Southwest  Level Estimated
Thu 10:42:00 AM 55.3069 -43.6309 238° Southwest  Level Estimated
Thu 10:43:00 AM 55.2407 -43.8127 237° Southwest  Level Estimated
Thu 10:44:00 AM 55.1742 -43.9938 237° Southwest  Level Estimated
Thu 10:45:00 AM 55.1074 -44.1743 237° Southwest  Level Estimated
Thu 10:46:00 AM 55.0407 -44.3535 237° Southwest  Level Estimated
Thu 10:47:00 AM 54.9736 -44.5322 237° Southwest  Level Estimated
Thu 10:48:00 AM 54.9063 -44.7102 237° Southwest  Level Estimated
Thu 10:49:00 AM 54.8388 -44.8877 237° Southwest  Level Estimated
Thu 10:50:00 AM 54.7710 -45.0646 236° Southwest  Level Estimated
Thu 10:51:00 AM 54.7029 -45.2409 236° Southwest  Level Estimated
Thu 10:52:00 AM 54.6345 -45.4165 236° Southwest  Level Estimated
Thu 10:53:00 AM 54.5660 -45.5916 236° Southwest  Level Estimated
Thu 10:54:00 AM 54.4971 -45.7662 236° Southwest  Level Estimated
Thu 10:55:00 AM 54.4280 -45.9401 236° Southwest  Level Estimated
Thu 10:56:00 AM 54.3587 -46.1134 236° Southwest  Level Estimated
Thu 10:57:00 AM 54.2891 -46.2862 235° Southwest  Level Estimated
Thu 10:58:00 AM 54.2193 -46.4583 235° Southwest  Level Estimated
Thu 10:59:00 AM 54.1492 -46.6299 235° Southwest  Level Estimated
Thu 11:00:00 AM 54.0789 -46.8009 235° Southwest  Level Estimated
Thu 11:01:00 AM 54.0083 -46.9713 235° Southwest  Level Estimated
Thu 11:02:00 AM 53.9375 -47.1412 235° Southwest  Level Estimated
Thu 11:02:04 AM 62.0000 -59.9333 234° Southwest 470 541 36,000  Level Montreal Center
Thu 11:03:00 AM 53.8665 -47.3104 235° Southwest  Level Estimated
Thu 11:03:04 AM 61.9167 -60.1167 226° Southwest 470 541 36,000  Level Montreal Center
Thu 11:04:00 AM 53.7952 -47.4791 234° Southwest  Level Estimated
Thu 11:04:04 AM 61.8500 -60.3333 237° Southwest 460 529 36,000  Level Montreal Center
Thu 11:05:00 AM 53.7237 -47.6472 234° Southwest  Level Estimated
Thu 11:05:04 AM 61.7667 -60.5500 231° Southwest 460 529 36,000  Level Montreal Center
Thu 11:06:00 AM 53.6520 -47.8148 234° Southwest  Level Estimated
Thu 11:06:04 AM 61.6833 -60.8000 235° Southwest 460 529 36,000  Level Montreal Center
Thu 11:07:00 AM 53.5800 -47.9818 234° Southwest  Level Estimated
Thu 11:07:04 AM 61.6333 -61.0167 244° Southwest 460 529 36,000  Level Montreal Center
Thu 11:08:04 AM 61.5500 -61.2333 231° Southwest 460 529 36,000  Level Montreal Center
Thu 11:09:04 AM 61.4667 -61.4500 231° Southwest 470 541 36,000  Level Montreal Center
Thu 11:10:04 AM 61.3833 -61.6667 231° Southwest 470 541 36,000  Level Montreal Center
Thu 11:11:04 AM 61.3167 -61.9167 241° Southwest 470 541 36,000  Level Montreal Center
Thu 11:12:04 AM 61.2333 -62.1167 229° Southwest 470 541 36,000  Level Montreal Center
Thu 11:13:04 AM 61.1500 -62.3333 231° Southwest 470 541 36,000  Level Montreal Center
Thu 11:14:04 AM 61.0667 -62.5833 236° Southwest 470 541 36,000  Level Montreal Center
Thu 11:15:04 AM 60.9833 -62.7833 229° Southwest 470 541 36,000  Level Montreal Center
Thu 11:16:04 AM 60.9000 -63.0000 232° Southwest 470 541 36,000  Level Montreal Center
Thu 11:17:04 AM 60.8167 -63.2000 230° Southwest 490 564 36,000  Level Montreal Center
Thu 11:18:04 AM 60.7667 -63.4333 246° West 470 541 36,000  Level Montreal Center
Thu 11:19:04 AM 60.6833 -63.6500 232° Southwest 470 541 36,000  Level Montreal Center
Thu 11:20:04 AM 60.6000 -63.8500 230° Southwest 470 541 36,000  Level Montreal Center
Thu 11:21:04 AM 60.5000 -64.0500 225° Southwest 470 541 36,000  Level Montreal Center
Thu 11:22:04 AM 60.4333 -64.2833 240° Southwest 470 541 36,000  Level Montreal Center
Thu 11:23:04 AM 60.3333 -64.4833 225° Southwest 470 541 36,000  Level Montreal Center
Thu 11:24:04 AM 60.2667 -64.6833 236° Southwest 470 541 36,000  Level Montreal Center
Thu 11:25:04 AM 60.1833 -64.8833 230° Southwest 470 541 36,000  Level Montreal Center
Thu 11:26:04 AM 60.1000 -65.0833 230° Southwest 460 529 36,000  Level Montreal Center
Thu 11:27:04 AM 60.0167 -65.2500 225° Southwest 460 529 36,000  Level Montreal Center
Thu 11:28:04 AM 59.9000 -65.4167 216° Southwest 460 529 36,000  Level Montreal Center
Thu 11:29:04 AM 59.8167 -65.6167 230° Southwest 460 529 36,000  Level Montreal Center
Thu 11:30:04 AM 59.7167 -65.7833 220° Southwest 460 529 36,000  Level Montreal Center
Thu 11:31:04 AM 59.6333 -65.9333 222° Southwest 460 529 36,000  Level Montreal Center
Thu 11:32:04 AM 59.5333 -66.1000 220° Southwest 460 529 36,000  Level Montreal Center
Thu 11:33:04 AM 59.4333 -66.2667 220° Southwest 460 529 36,000  Level Montreal Center
Thu 11:33:59 AM 59.3500 -66.4833 233° Southwest 460 529 36,000  Level Gander Center
Thu 11:34:59 AM 59.2500 -66.6167 214° Southwest 460 529 36,000  Level Gander Center
Thu 11:36:05 AM 59.1500 -66.7667 218° Southwest 450 518 36,000  Level Montreal Center
Thu 11:37:05 AM 59.0333 -66.9000 210° Southwest 450 518 36,000  Level Montreal Center
Thu 11:38:05 AM 58.9500 -67.0500 223° Southwest 450 518 36,000  Level Montreal Center
Thu 11:39:05 AM 58.8500 -67.2333 224° Southwest 450 518 36,000  Level Montreal Center
Thu 11:40:05 AM 58.7500 -67.4000 221° Southwest 450 518 36,000  Level Montreal Center
Thu 11:41:05 AM 58.6500 -67.5500 218° Southwest 450 518 36,000  Level Montreal Center
Thu 11:42:05 AM 58.5667 -67.7000 223° Southwest 450 518 36,000  Level Montreal Center
Thu 11:43:05 AM 58.4667 -67.8500 218° Southwest 450 518 36,000  Level Montreal Center
Thu 11:44:05 AM 58.3667 -68.0000 218° Southwest 450 518 36,000  Level Montreal Center
Thu 11:45:05 AM 58.2667 -68.1500 218° Southwest 450 518 36,000  Level Montreal Center
Thu 11:46:05 AM 58.1667 -68.3000 218° Southwest 470 541 36,000  Level Montreal Center
Thu 11:47:10 AM 58.0667 -68.4500 218° Southwest 470 541 36,000  Level Montreal Center
Thu 11:48:10 AM 57.9667 -68.5667 212° Southwest 460 529 36,000  Level Montreal Center
Thu 11:49:10 AM 57.8667 -68.7167 219° Southwest 450 518 36,000  Level Montreal Center
Thu 11:50:10 AM 57.7667 -68.8500 215° Southwest 450 518 36,000  Level Montreal Center
Thu 11:51:10 AM 57.6833 -68.9667 217° Southwest 440 506 36,000  Level Montreal Center
Thu 11:52:10 AM 57.5667 -69.1167 215° Southwest 440 506 36,000  Level Montreal Center
Thu 11:53:10 AM 57.4667 -69.2667 219° Southwest 440 506 36,000  Level Montreal Center
Thu 11:54:10 AM 57.3667 -69.4000 216° Southwest 440 506 36,000  Level Montreal Center
Thu 11:55:10 AM 57.2667 -69.5167 212° Southwest 440 506 36,000  Level Montreal Center
Thu 11:56:10 AM 57.1667 -69.6500 216° Southwest 440 506 36,000  Level Montreal Center
Thu 11:57:10 AM 57.0833 -69.8000 224° Southwest 440 506 36,000  Level Montreal Center
Thu 11:58:10 AM 56.9667 -69.9000 205° Southwest 440 506 36,000  Level Montreal Center
Thu 11:59:10 AM 56.8667 -70.0500 219° Southwest 440 506 36,000  Level Montreal Center
Thu 12:00:10 PM 56.7667 -70.1500 209° Southwest 440 506 36,000  Level Montreal Center
Thu 12:01:10 PM 56.6833 -70.2833 221° Southwest 440 506 36,000  Level Montreal Center
Thu 12:02:10 PM 56.5667 -70.4333 215° Southwest 440 506 36,000  Level Montreal Center
Thu 12:03:10 PM 56.4667 -70.5333 209° Southwest 440 506 36,000  Level Montreal Center
Thu 12:04:10 PM 56.3667 -70.6667 216° Southwest 440 506 36,000  Level Montreal Center
Thu 12:05:10 PM 56.2667 -70.8000 217° Southwest 440 506 36,000  Level Montreal Center
Thu 12:06:10 PM 56.1500 -70.9167 209° Southwest 440 506 36,000  Level Montreal Center
Thu 12:07:10 PM 56.0500 -71.0500 217° Southwest 430 495 36,000  Level Montreal Center
Thu 12:08:10 PM 55.9500 -71.1500 209° Southwest 430 495 36,000  Level Montreal Center
Thu 12:09:10 PM 55.8667 -71.2833 222° Southwest 440 506 36,000  Level Montreal Center
Thu 12:10:10 PM 55.7667 -71.4167 217° Southwest 430 495 36,000  Level Montreal Center
Thu 12:11:10 PM 55.6500 -71.5167 206° Southwest 440 506 36,000  Level Montreal Center
Thu 12:12:10 PM 55.5500 -71.6500 217° Southwest 440 506 36,000  Level Montreal Center
Thu 12:13:10 PM 55.4500 -71.7500 210° Southwest 430 495 36,000  Level Montreal Center
Thu 12:14:10 PM 55.3667 -71.8667 219° Southwest 430 495 36,000  Level Montreal Center
Thu 12:15:10 PM 55.2667 -71.9667 210° Southwest 430 495 36,000  Level Montreal Center
Thu 12:16:10 PM 55.1500 -72.1000 213° Southwest 420 483 36,000  Level Montreal Center
Thu 12:17:10 PM 55.0500 -72.2333 217° Southwest 420 483 36,000  Level Montreal Center
Thu 12:18:10 PM 54.9500 -72.3333 210° Southwest 420 483 36,000  Level Montreal Center
Thu 12:19:10 PM 54.8500 -72.4500 214° Southwest 420 483 36,000  Level Montreal Center
Thu 12:20:10 PM 54.7500 -72.5500 210° Southwest 420 483 36,000  Level Montreal Center
Thu 12:21:10 PM 54.6667 -72.6667 219° Southwest 420 483 36,000  Level Montreal Center
Thu 12:22:10 PM 54.5667 -72.7667 210° Southwest 420 483 36,000  Level Montreal Center
Thu 12:23:10 PM 54.4667 -72.9000 218° Southwest 420 483 36,000  Level Montreal Center
Thu 12:24:10 PM 54.3667 -72.9833 206° Southwest 420 483 36,000  Level Montreal Center
Thu 12:25:10 PM 54.2667 -73.1167 218° Southwest 420 483 36,000  Level Montreal Center
Thu 12:26:10 PM 54.1667 -73.2000 206° Southwest 420 483 36,000  Level Montreal Center
Thu 12:27:10 PM 54.0667 -73.3167 214° Southwest 430 495 36,000  Level Montreal Center
Thu 12:28:10 PM 53.9500 -73.4167 207° Southwest 420 483 36,000  Level Montreal Center
Thu 12:29:10 PM 53.8500 -73.5333 215° Southwest 420 483 36,000  Level Montreal Center
Thu 12:30:10 PM 53.7500 -73.6500 215° Southwest 420 483 36,000  Level Montreal Center
Thu 12:31:10 PM 53.6500 -73.7500 211° Southwest 430 495 36,000  Level Montreal Center
Thu 12:32:10 PM 53.5333 -73.8333 203° Southwest 420 483 36,000  Level Montreal Center
Thu 12:33:10 PM 53.4333 -73.9333 211° Southwest 430 495 36,000  Level Montreal Center
Thu 12:34:10 PM 53.3333 -74.0167 206° Southwest 420 483 36,000  Level Montreal Center
Thu 12:35:10 PM 53.2167 -74.1000 203° Southwest 430 495 36,000  Level Montreal Center
Thu 12:36:10 PM 53.1167 -74.2000 211° Southwest 430 495 36,000  Level Montreal Center
Thu 12:37:10 PM 53.0333 -74.2833 211° Southwest 430 495 36,000  Level Montreal Center
Thu 12:38:10 PM 52.9167 -74.3667 203° Southwest 420 483 36,000  Level Montreal Center
Thu 12:39:10 PM 52.8000 -74.4333 199° South 420 483 36,000  Level Montreal Center
Thu 12:40:10 PM 52.7167 -74.5167 211° Southwest 420 483 36,000  Level Montreal Center
Thu 12:41:10 PM 52.6000 -74.6333 211° Southwest 420 483 36,000  Level Montreal Center
Thu 12:42:10 PM 52.4833 -74.7000 199° South 420 483 36,000  Level Montreal Center
Thu 12:43:10 PM 52.3667 -74.7833 204° Southwest 410 472 36,000  Level Montreal Center
Thu 12:44:10 PM 52.2667 -74.8667 207° Southwest 400 460 36,000  Level Montreal Center
Thu 12:45:10 PM 52.1667 -74.9500 207° Southwest 420 483 36,000  Level Montreal Center
Thu 12:46:10 PM 52.0667 -75.0333 207° Southwest 410 472 36,000  Level Montreal Center
Thu 12:47:10 PM 51.9500 -75.1167 204° Southwest 420 483 36,000  Level Montreal Center
Thu 12:48:10 PM 51.8500 -75.2000 207° Southwest 410 472 36,000  Level Montreal Center
Thu 12:49:10 PM 51.7500 -75.2833 207° Southwest 420 483 36,000  Level Montreal Center
Thu 12:50:10 PM 51.6500 -75.3667 207° Southwest 420 483 36,000  Level Montreal Center
Thu 12:51:10 PM 51.5500 -75.4500 207° Southwest 420 483 36,000  Level Montreal Center
Thu 12:52:10 PM 51.4333 -75.5333 204° Southwest 410 472 36,000  Level Montreal Center
Thu 12:53:10 PM 51.3333 -75.5833 197° South 410 472 36,000  Level Montreal Center
Thu 12:54:10 PM 51.2333 -75.6667 208° Southwest 410 472 36,000  Level Montreal Center
Thu 12:55:10 PM 51.1333 -75.7500 208° Southwest 410 472 36,000  Level Montreal Center
Thu 12:56:10 PM 51.0167 -75.8333 204° Southwest 410 472 36,000  Level Montreal Center
Thu 12:57:10 PM 50.9167 -75.9167 208° Southwest 420 483 36,000  Level Montreal Center
Thu 12:58:10 PM 50.8167 -76.0000 208° Southwest 420 483 36,000  Level Montreal Center
Thu 12:59:10 PM 50.7167 -76.0667 203° Southwest 410 472 36,000  Level Montreal Center
Thu 01:00:10 PM 50.6000 -76.1500 204° Southwest 410 472 36,000  Level Montreal Center
Thu 01:01:10 PM 50.5000 -76.2333 208° Southwest 410 472 36,000  Level Montreal Center
Thu 01:02:09 PM 50.4000 -76.2833 198° South 410 472 36,000  Level Montreal Center
Thu 01:03:09 PM 50.3000 -76.3667 208° Southwest 410 472 36,000  Level Montreal Center
Thu 01:04:09 PM 50.2000 -76.4333 203° Southwest 410 472 36,000  Level Montreal Center
Thu 01:05:09 PM 50.0667 -76.5167 202° Southwest 410 472 36,000  Level Montreal Center
Thu 01:06:09 PM 49.9667 -76.6000 208° Southwest 410 472 36,000  Level Montreal Center
Thu 01:07:09 PM 49.8667 -76.6667 203° Southwest 410 472 36,000  Level Montreal Center
Thu 01:08:09 PM 49.7667 -76.7500 208° Southwest 410 472 36,000  Level Montreal Center
Thu 01:09:09 PM 49.6667 -76.8167 203° Southwest 410 472 36,000  Level Montreal Center
Thu 01:10:09 PM 49.5500 -76.9000 205° Southwest 400 460 36,000  Level Montreal Center
Thu 01:11:09 PM 49.4500 -76.9500 198° South 410 472 36,000  Level Montreal Center
Thu 01:12:09 PM 49.3333 -77.0167 200° South 430 495 36,000  Level Montreal Center
Thu 01:13:09 PM 49.2500 -77.1000 213° Southwest 400 460 36,000  Level Montreal Center
Thu 01:14:09 PM 49.1500 -77.1667 204° Southwest 410 472 36,000  Level Montreal Center
Thu 01:15:09 PM 49.0333 -77.2500 205° Southwest 420 483 36,000  Level Montreal Center
Thu 01:16:09 PM 48.9167 -77.3167 201° Southwest 410 472 36,000  Level Montreal Center
Thu 01:17:09 PM 48.8167 -77.4000 209° Southwest 410 472 36,000  Level Montreal Center
Thu 01:18:09 PM 48.7167 -77.4667 204° Southwest 410 472 36,000  Level Montreal Center
Thu 01:19:09 PM 48.6167 -77.5500 209° Southwest 410 472 36,000  Level Montreal Center
Thu 01:20:09 PM 48.5167 -77.5833 192° South 410 472 36,000  Level Montreal Center
Thu 01:21:09 PM 48.4000 -77.6667 205° Southwest 410 472 36,000  Level Montreal Center
Thu 01:22:09 PM 48.3000 -77.7333 204° Southwest 410 472 36,000  Level Montreal Center
Thu 01:23:09 PM 48.2000 -77.8000 204° Southwest 410 472 36,000  Level Montreal Center
Thu 01:24:09 PM 48.1000 -77.8833 209° Southwest 410 472 36,000  Level Montreal Center
Thu 01:25:09 PM 47.9667 -77.9167 190° South 410 472 36,000  Level Montreal Center
Thu 01:26:09 PM 47.8667 -78.0000 209° Southwest 410 472 36,000  Level Montreal Center
Thu 01:27:09 PM 47.7667 -78.0667 204° Southwest 410 472 36,000  Level Montreal Center
Thu 01:28:09 PM 47.6667 -78.1167 199° South 410 472 36,000  Level Montreal Center
Thu 01:29:09 PM 47.5667 -78.1833 204° Southwest 410 472 36,000  Level Montreal Center
Thu 01:30:09 PM 47.4500 -78.2500 201° Southwest 410 472 36,000  Level Montreal Center
Thu 01:31:53 PM 47.2500 -78.3333 196° South 410 472 36,000  Level Toronto Center
Thu 01:32:53 PM 47.1500 -78.3833 199° South 400 460 36,000  Level Toronto Center
Thu 01:33:53 PM 47.0667 -78.4333 202° Southwest 400 460 36,000  Level Toronto Center
Thu 01:34:53 PM 46.9500 -78.4833 196° South 400 460 36,000  Level Toronto Center
Thu 01:35:53 PM 46.8500 -78.5667 210° Southwest 400 460 36,000  Level Toronto Center
Thu 01:36:53 PM 46.7500 -78.6167 199° South 400 460 36,000  Level Toronto Center
Thu 01:37:53 PM 46.6500 -78.6667 199° South 400 460 36,000  Level Toronto Center
Thu 01:38:53 PM 46.5500 -78.7333 205° Southwest 400 460 36,000  Level Toronto Center
Thu 01:39:53 PM 46.4333 -78.7833 196° South 410 472 36,000  Level Toronto Center
Thu 01:40:53 PM 46.3333 -78.8333 199° South 410 472 36,000  Level Toronto Center
Thu 01:41:53 PM 46.2167 -78.9167 206° Southwest 400 460 36,000  Level Toronto Center
Thu 01:42:53 PM 46.1167 -78.9667 199° South 400 460 36,000  Level Toronto Center
Thu 01:43:53 PM 46.0167 -79.0000 193° South 400 460 36,000  Level Toronto Center
Thu 01:44:53 PM 45.9167 -79.0833 210° Southwest 390 449 36,000  Level Toronto Center
Thu 01:45:53 PM 45.8167 -79.1333 199° South 390 449 36,000  Level Toronto Center
Thu 01:46:53 PM 45.7000 -79.1833 197° South 390 449 36,000  Level Toronto Center
Thu 01:47:53 PM 45.6000 -79.2333 199° South 390 449 36,000  Level Toronto Center
Thu 01:48:53 PM 45.5000 -79.2833 199° South 400 460 36,000  Level Toronto Center
Thu 01:53:52 PM 45.0025 -79.5763 199° South 386 444 36,000  Level FlightAware ADS-B (CYKF)
Thu 01:55:21 PM 44.8549 -79.6528 200° South 385 443 36,000  Level FlightAware ADS-B (CYKF)
Thu 01:56:01 PM 44.7888 -79.6869 200° South 381 438 36,000  Level FlightAware ADS-B (EPLB / LUZ)
Thu 01:56:45 PM 44.7210 -79.7218 200° South 379 436 36,000  Level FlightAware ADS-B (EPLB / LUZ)
Thu 01:57:23 PM 44.6529 -79.7569 200° South 379 436 36,000  Level FlightAware ADS-B (EPLB / LUZ)
Thu 01:57:57 PM 44.5994 -79.7851 201° Southwest 376 433 36,000  Level FlightAware ADS-B (EPLB / LUZ)
Thu 01:58:36 PM 44.5389 -79.8307 208° Southwest 362 417 36,000  Level FlightAware ADS-B (EPLB / LUZ)
Thu 01:59:09 PM 44.4931 -79.8730 213° Southwest 362 417 36,000  Level FlightAware ADS-B (EPLB / LUZ)
Thu 01:59:40 PM 44.4722 -79.8921 213° Southwest 362 417 36,000  Level FlightAware ADS-B (CYKF)
Thu 02:00:20 PM 44.3948 -79.9621 213° Southwest 363 418 36,000  Level FlightAware ADS-B (EPLB / LUZ)
Thu 02:01:01 PM 44.3363 -80.0146 213° Southwest 361 415 36,000  Level FlightAware ADS-B (EPLB / LUZ)
Thu 02:01:33 PM 44.2915 -80.0546 213° Southwest 359 413 36,000  Level FlightAware ADS-B (EPLB / LUZ)
Thu 02:02:11 PM 44.2412 -80.0996 213° Southwest 356 410 36,000  Level FlightAware ADS-B (EPLB / LUZ)
Thu 02:02:52 PM 44.1809 -80.1534 213° Southwest 360 414 36,000  Level FlightAware ADS-B (CYKF)
Thu 02:03:24 PM 44.1357 -80.1936 213° Southwest 360 414 36,000  Level FlightAware ADS-B (EPLB / LUZ)
Thu 02:05:08 PM 43.9904 -80.3226 213° Southwest 363 418 36,000  Level FlightAware ADS-B (EPLB / LUZ)
Thu 02:05:42 PM 43.9422 -80.3652 212° Southwest 362 417 36,000  Level FlightAware ADS-B (CYKF)
Thu 02:06:20 PM 43.8890 -80.4122 212° Southwest 362 417 36,000  Level FlightAware ADS-B (EPLB / LUZ)
Thu 02:06:57 PM 43.8366 -80.4581 212° Southwest 361 415 36,000  Level FlightAware ADS-B (EPLB / LUZ)
Thu 02:07:37 PM 43.7804 -80.5074 212° Southwest 361 415 36,000  Level FlightAware ADS-B (EPLB / LUZ)
Thu 02:08:08 PM 43.7363 -80.5460 212° Southwest 361 415 36,000  Level FlightAware ADS-B
Thu 02:08:41 PM 43.6900 -80.5864 212° Southwest 361 415 36,000  Level FlightAware ADS-B (CYKF)
Thu 02:09:15 PM 43.6669 -80.6066 212° Southwest 361 415 36,000  Level FlightAware ADS-B (EPLB / LUZ)
Thu 02:10:01 PM 43.5782 -80.6839 212° Southwest 362 417 36,000  Level FlightAware ADS-B (CYKF)
Thu 02:10:35 PM 43.5298 -80.7260 212° Southwest 364 419 36,000  Level FlightAware ADS-B (EPLB / LUZ)
Thu 02:11:20 PM 43.4903 -80.7602 212° Southwest 363 418 36,000  Level FlightAware ADS-B (CYKF)
Thu 02:11:59 PM 43.4091 -80.8306 212° Southwest 364 419 36,000  Level FlightAware ADS-B (CYKF)
Thu 02:12:40 PM 43.3509 -80.8809 212° Southwest 365 420 36,000  Level FlightAware ADS-B (CYKF)
Thu 02:13:13 PM 43.3036 -80.9216 212° Southwest 366 421 36,000  Level FlightAware ADS-B (EPLB / LUZ)
Thu 02:13:53 PM 43.2493 -80.9683 212° Southwest 366 421 36,000  Level FlightAware ADS-B (EPLB / LUZ)
Thu 02:14:31 PM 43.1930 -81.0164 212° Southwest 364 419 36,000  Level FlightAware ADS-B (EPLB / LUZ)
Thu 02:15:22 PM 43.1205 -81.0784 212° Southwest 364 419 36,000  Level FlightAware ADS-B (CYKF)
Thu 02:16:01 PM 43.0645 -81.1262 212° Southwest 366 421 36,000  Level FlightAware ADS-B (CYKF)
Thu 02:16:35 PM 43.0623 -81.1281 212° Southwest 377 434 36,000  Level FlightAware ADS-B (CYKF)
Thu 02:16:57 PM 43.0623 -81.1281 212° Southwest 376 433 36,000  Level FlightAware ADS-B (CYKF)
Thu 02:17:30 PM 42.9253 -81.2183 206° Southwest 377 434 36,000  Level FlightAware ADS-B (EPLB / LUZ)
Thu 02:18:02 PM 42.9367 -81.2112 25° Northeast 377 434 36,000  Level FlightAware ADS-B (CYKF)
Thu 02:18:59 PM 42.7845 -81.3055 204° Southwest 379 436 36,000  Level FlightAware ADS-B (CYKF)
Thu 02:19:34 PM 42.7296 -81.3392 204° Southwest 379 436 36,000  Level FlightAware ADS-B (CYKF)
Thu 02:20:18 PM 42.6817 -81.3686 204° Southwest 378 435 36,000  Level FlightAware ADS-B (CYKF)
Thu 02:21:02 PM 42.6108 -81.4119 204° Southwest 376 433 36,000  Level FlightAware ADS-B (CYKF)
Thu 02:21:37 PM 42.5339 -81.4589 204° Southwest 376 433 36,000  Level FlightAware ADS-B (CYKF)
Thu 02:22:16 PM 42.4879 -81.4870 204° Southwest 377 434 36,000  Level FlightAware ADS-B (CYKF)
Thu 02:22:55 PM 42.4484 -81.5109 204° Southwest 380 437 36,000  Level FlightAware ADS-B (CYKF)
Thu 02:24:26 PM 42.3749 -81.5556 204° Southwest 381 438 36,000  Level FlightAware ADS-B (EPLB / LUZ)
Thu 02:25:40 PM 42.1464 -81.6942 204° Southwest 379 436 36,000  Level Cleveland Center
Thu 02:26:42 PM 42.0486 -81.7531 204° Southwest 381 438 36,000  Level Cleveland Center
Thu 02:27:44 PM 41.9503 -81.8108 204° Southwest 383 441 36,000  Level Cleveland Center
Thu 02:28:46 PM 41.8539 -81.8686 204° Southwest 380 437 36,000  Level Cleveland Center
Thu 02:29:48 PM 41.7572 -81.9264 204° Southwest 378 435 36,000  Level Cleveland Center
Thu 02:30:50 PM 41.6617 -81.9825 204° Southwest 374 430 36,000  Level Cleveland Center
Thu 02:31:52 PM 41.5658 -82.0397 204° Southwest 376 433 36,000  Level Cleveland Center
Thu 02:32:55 PM 41.4550 -82.1044 204° Southwest 372 428 36,000  Level Cleveland Center
Thu 02:33:57 PM 41.3600 -82.1592 203° Southwest 371 427 36,000  Level Cleveland Center
Thu 02:34:59 PM 41.2581 -82.1964 195° South 379 436 36,000  Level Cleveland Center
Thu 02:36:01 PM 41.1561 -82.2339 195° South 378 435 36,000  Level Cleveland Center
Thu 02:37:03 PM 41.0536 -82.2700 195° South 379 436 36,000  Level Cleveland Center
Thu 02:38:05 PM 40.9331 -82.3133 195° South 381 438 36,000  Level Cleveland Center
Thu 02:39:07 PM 40.8322 -82.3500 195° South 375 432 36,000  Level Cleveland Center
Thu 02:40:09 PM 40.7317 -82.3847 195° South 372 428 36,000  Level Cleveland Center
Thu 02:41:11 PM 40.6308 -82.4208 195° South 371 427 36,000  Level Cleveland Center
Thu 02:42:13 PM 40.5239 -82.4589 195° South 372 428 36,000  Level Cleveland Center
Thu 02:43:15 PM 40.4219 -82.4942 195° South 376 433 36,000  Level Cleveland Center
Thu 02:47:31 PM 39.9822 -82.5997 195° South 388 447 36,000  Level FlightAware ADS-B
Thu 02:49:21 PM 39.7699 -82.6144 183° South 387 445 36,000  Level FlightAware ADS-B
Thu 02:49:53 PM 39.7256 -82.6174 183° South 384 442 36,000  Level FlightAware ADS-B
Thu 02:50:33 PM 39.6421 -82.6229 183° South 381 438 36,000  Level FlightAware ADS-B
Thu 02:51:09 PM 39.5807 -82.6271 183° South 380 437 36,000  Level FlightAware ADS-B
Thu 02:51:51 PM 39.5077 -82.6320 183° South 381 438 36,000  Level FlightAware ADS-B
Thu 02:52:23 PM 39.4549 -82.6355 183° South 380 437 36,000  Level FlightAware ADS-B
Thu 02:53:04 PM 39.3819 -82.6403 183° South 376 433 36,000  Level FlightAware ADS-B
Thu 02:53:36 PM 39.3251 -82.6441 183° South 374 430 36,000  Level FlightAware ADS-B
Thu 02:54:17 PM 39.2530 -82.6489 183° South 373 429 36,000  Level FlightAware ADS-B
Thu 02:54:48 PM 39.1980 -82.6526 183° South 372 428 36,000  Level FlightAware ADS-B
Thu 02:55:30 PM 39.1266 -82.6573 183° South 369 425 36,000  Level FlightAware ADS-B
Thu 02:56:03 PM 39.0712 -82.6610 183° South 367 422 36,000  Level FlightAware ADS-B
Thu 02:56:43 PM 39.0029 -82.6656 183° South 368 423 36,000  Level FlightAware ADS-B
Thu 02:57:15 PM 38.9482 -82.6692 183° South 369 425 36,000  Level FlightAware ADS-B
Thu 02:57:55 PM 38.8804 -82.6736 183° South 368 423 36,000  Level FlightAware ADS-B
Thu 02:58:32 PM 38.8180 -82.6777 183° South 369 425 36,000  Level FlightAware ADS-B
Thu 02:59:13 PM 38.7480 -82.6823 183° South 369 425 36,000  Level FlightAware ADS-B
Thu 02:59:45 PM 38.6943 -82.6859 183° South 370 426 36,000  Level FlightAware ADS-B
Thu 03:00:21 PM 38.6320 -82.6900 183° South 372 428 36,000  Level FlightAware ADS-B
Thu 03:01:13 PM 38.5592 -82.6953 183° South 369 425 36,000  Level Indianapolis Center
Thu 03:02:14 PM 38.4544 -82.7019 183° South 374 430 36,000  Level Indianapolis Center
Thu 03:03:18 PM 38.3483 -82.7083 183° South 378 435 36,000  Level Indianapolis Center
Thu 03:04:19 PM 38.2247 -82.7169 183° South 380 437 36,000  Level Indianapolis Center
Thu 03:05:20 PM 38.1194 -82.7244 183° South 379 436 36,000  Level Indianapolis Center
Thu 03:06:23 PM 38.0142 -82.7297 182° South 378 435 36,000  Level Indianapolis Center
Thu 03:07:24 PM 37.9081 -82.7372 183° South 379 436 36,000  Level Indianapolis Center
Thu 03:08:27 PM 37.8025 -82.7447 183° South 379 436 36,000  Level Indianapolis Center
Thu 03:09:27 PM 37.6981 -82.7578 186° South 377 434 36,000  Level Indianapolis Center
Thu 03:10:31 PM 37.5903 -82.8083 200° South 356 410 36,000  Level Indianapolis Center
Thu 03:11:32 PM 37.5050 -82.8669 209° Southwest 349 402 36,000  Level Indianapolis Center
Thu 03:12:33 PM 37.4197 -82.9228 207° Southwest 347 399 36,000  Level Indianapolis Center
Thu 03:13:37 PM 37.3342 -82.9783 207° Southwest 346 398 36,000  Level Indianapolis Center
Thu 03:14:38 PM 37.2503 -83.0342 208° Southwest 343 395 36,000  Level Indianapolis Center
Thu 03:15:42 PM 37.1508 -83.0978 207° Southwest 344 396 36,000  Level Indianapolis Center
Thu 03:16:44 PM 37.0669 -83.1525 208° Southwest 343 395 36,000  Level Indianapolis Center
Thu 03:17:45 PM 36.9833 -83.2072 208° Southwest 341 392 36,000  Level Indianapolis Center
Thu 03:18:48 PM 36.8997 -83.2606 207° Southwest 340 391 36,000  Level Indianapolis Center
Thu 03:19:49 PM 36.8025 -83.3242 208° Southwest 339 390 36,000  Level Indianapolis Center
Thu 03:20:52 PM 36.7194 -83.3764 207° Southwest 337 388 36,000  Level Indianapolis Center
Thu 03:21:53 PM 36.6356 -83.4308 208° Southwest 339 390 36,000  Level Indianapolis Center
Thu 03:22:57 PM 36.5531 -83.4833 207° Southwest 335 386 36,000  Level Indianapolis Center
Thu 03:23:57 PM 36.4608 -83.5419 207° Southwest 333 383 36,000  Level Indianapolis Center
Thu 03:25:01 PM 36.3778 -83.5939 207° Southwest 333 383 36,000  Level Indianapolis Center
Thu 03:26:01 PM 36.2939 -83.6469 207° Southwest 335 386 36,000  Level Indianapolis Center
Thu 03:27:02 PM 36.2108 -83.7008 208° Southwest 336 387 36,000  Level Indianapolis Center
Thu 03:28:06 PM 36.1272 -83.7531 207° Southwest 336 387 36,000  Level Indianapolis Center
Thu 03:29:05 PM 36.0414 -83.8103 208° Southwest 340 391 36,000  Level Atlanta Center
Thu 03:30:05 PM 35.9581 -83.8617 207° Southwest 340 391 36,000  Level Atlanta Center
Thu 03:31:05 PM 35.8706 -83.9056 202° Southwest 345 397 36,000  Level Atlanta Center
Thu 03:32:05 PM 35.7744 -83.9286 191° South 345 397 36,000  Level Atlanta Center
Thu 03:37:11 PM 35.2215 -84.0601 191° South 345 397 36,000  Level FlightAware ADS-B (KDZJ)
Thu 03:37:58 PM 35.1455 -84.0784 191° South 346 398 36,000  Level FlightAware ADS-B (KDZJ)
Thu 03:38:35 PM 35.0863 -84.0926 191° South 346 398 36,000  Level FlightAware ADS-B (KDZJ)
Thu 03:39:11 PM 35.0282 -84.1064 191° South 345 397 36,000  Level FlightAware ADS-B (KDZJ)
Thu 03:40:00 PM 34.9497 -84.1252 191° South 347 399 36,000  Level FlightAware ADS-B (KDZJ)
Thu 03:40:40 PM 34.8855 -84.1404 191° South 347 399 36,000  Level FlightAware ADS-B (KDZJ)
Thu 03:41:16 PM 34.8272 -84.1543 191° South 347 399 36,000  Level FlightAware ADS-B (KDZJ)
Thu 03:41:49 PM 34.7743 -84.1669 191° South 347 399 36,000  Level FlightAware ADS-B (KDZJ)
Thu 03:42:20 PM 34.7252 -84.1786 191° South 346 398 36,000  Level FlightAware ADS-B (KDZJ)
Thu 03:43:00 PM 34.6608 -84.1938 191° South 346 398 36,000  Level FlightAware ADS-B (KDZJ)
Thu 03:43:37 PM 34.6015 -84.2077 191° South 349 402 36,000  Level FlightAware ADS-B (KDZJ)
Thu 03:44:13 PM 34.5420 -84.2218 191° South 358 412 36,000  Level FlightAware ADS-B (KDZJ)
Thu 03:45:00 PM 34.4658 -84.2399 191° South 360 414 36,000  Level FlightAware ADS-B (KDZJ)
Thu 03:45:40 PM 34.4000 -84.2553 191° South 363 418 36,000  Level FlightAware ADS-B (KDZJ)
Thu 03:46:20 PM 34.3329 -84.2711 191° South 365 420 36,000  Level FlightAware ADS-B (KDZJ)
Thu 03:47:00 PM 34.2676 -84.2865 191° South 365 420 36,000  Level FlightAware ADS-B (KDZJ)
Thu 03:47:41 PM 34.1993 -84.3025 191° South 360 414 36,000  Level FlightAware ADS-B (KDZJ)
Thu 03:48:20 PM 34.1334 -84.3179 191° South 360 414 36,000  Level FlightAware ADS-B (KDZJ)
Thu 03:49:00 PM 34.0676 -84.3333 191° South 362 417 36,000  Level FlightAware ADS-B (KDZJ)
Thu 03:49:40 PM 34.0001 -84.3491 191° South 363 418 36,000 48 Level FlightAware ADS-B (KDZJ)
Thu 03:51:05 PM 33.9106 -84.3742 191° South 370 426 36,100 372 Climbing Atlanta Center
Thu 03:52:05 PM 33.8064 -84.3964 190° South 376 433 36,900 450 Climbing Atlanta Center
Thu 03:53:05 PM 33.7103 -84.4183 191° South 370 426 37,000 50 Climbing Atlanta Center
Thu 03:54:05 PM 33.6119 -84.4353 188° South 370 426 37,000  Level Atlanta Center
Thu 03:55:05 PM 33.5014 -84.4375 181° South 378 435 37,000  Level Atlanta Center
Thu 03:56:05 PM 33.3950 -84.4344 179° South 385 443 37,000  Level Atlanta Center
Thu 03:57:05 PM 33.2864 -84.4339 180° South 385 443 37,000  Level Atlanta Center
Thu 03:58:05 PM 33.1758 -84.4333 180° South 385 443 37,000  Level Atlanta Center
Thu 03:59:05 PM 33.0694 -84.4306 179° South 385 443 37,000  Level Atlanta Center
Thu 04:00:05 PM 32.9608 -84.4275 179° South 385 443 37,000  Level Atlanta Center
Thu 04:01:05 PM 32.8522 -84.4244 179° South 391 450 37,000  Level Atlanta Center
Thu 04:02:05 PM 32.7542 -84.4167 176° South 397 457 37,000  Level Atlanta Center
Thu 04:03:05 PM 32.6456 -84.4164 180° South 397 457 37,000  Level Atlanta Center
Thu 04:04:05 PM 32.5308 -84.4133 179° South 402 463 37,000  Level Atlanta Center
Thu 04:05:05 PM 32.4181 -84.4128 180° South 402 463 37,000  Level Atlanta Center
Thu 04:06:05 PM 32.3056 -84.4125 180° South 402 463 37,000  Level Atlanta Center
Thu 04:07:05 PM 32.1928 -84.4069 178° South 402 463 37,000  Level Atlanta Center
Thu 04:08:05 PM 32.0781 -84.4067 180° South 402 463 37,000  Level Atlanta Center
Thu 04:09:05 PM 31.9631 -84.4036 179° South 402 463 37,000  Level Atlanta Center
Thu 04:09:47 PM 31.8736 -84.4019 179° South 401 461 37,000  Level Jacksonville Center
Thu 04:10:47 PM 31.7589 -84.4003 179° South 401 461 37,000  Level Jacksonville Center
Thu 04:11:47 PM 31.6439 -84.3983 179° South 401 461 37,000  Level Jacksonville Center
Thu 04:12:47 PM 31.5292 -84.3939 178° South 407 468 37,000  Level Jacksonville Center
Thu 04:13:47 PM 31.4144 -84.3922 179° South 407 468 37,000  Level Jacksonville Center
Thu 04:14:47 PM 31.3017 -84.3903 179° South 407 468 37,000  Level Jacksonville Center
Thu 04:15:47 PM 31.1869 -84.3886 179° South 407 468 37,000  Level Jacksonville Center
Thu 04:16:47 PM 31.0678 -84.3867 179° South 412 474 37,000  Level Jacksonville Center
Thu 04:17:47 PM 30.9550 -84.3847 179° South 417 480 37,000  Level Jacksonville Center
Thu 04:18:47 PM 30.8383 -84.3831 179° South 422 486 37,000  Level Jacksonville Center
Thu 04:19:47 PM 30.7192 -84.3811 179° South 422 486 37,000  Level Jacksonville Center
Thu 04:20:47 PM 30.6006 -84.3647 173° South 422 486 37,000  Level Jacksonville Center
Thu 04:21:47 PM 30.4944 -84.3269 163° South 429 494 37,000  Level Jacksonville Center
Thu 04:22:47 PM 30.3803 -84.2578 152° Southeast 445 512 37,000  Level Jacksonville Center
Thu 04:23:47 PM 30.2558 -84.1792 151° Southeast 457 526 37,000  Level Jacksonville Center
Thu 04:24:47 PM 30.1417 -84.1031 150° Southeast 464 534 37,000  Level Jacksonville Center
Thu 04:25:47 PM 30.0275 -84.0297 151° Southeast 469 540 37,000  Level Jacksonville Center
Thu 04:26:47 PM 29.9133 -83.9564 151° Southeast 469 540 37,000  Level Jacksonville Center
Thu 04:27:47 PM 29.7992 -83.8811 150° Southeast 469 540 37,000  Level Jacksonville Center
Thu 04:28:47 PM 29.6850 -83.8081 151° Southeast 469 540 37,000  Level Jacksonville Center
Thu 04:29:47 PM 29.5728 -83.7356 151° Southeast 469 540 37,000  Level Jacksonville Center
Thu 04:30:47 PM 29.4542 -83.6606 151° Southeast 469 540 37,000  Level Jacksonville Center
Thu 04:31:47 PM 29.3397 -83.5881 151° Southeast 474 545 37,000  Level Jacksonville Center
Thu 04:32:47 PM 29.2275 -83.5161 151° Southeast 474 545 37,000  Level Jacksonville Center
Thu 04:33:47 PM 29.1108 -83.4417 151° Southeast 474 545 37,000  Level Jacksonville Center
Thu 04:34:47 PM 28.9964 -83.3697 151° Southeast 474 545 37,000  Level Jacksonville Center
Thu 04:35:47 PM 28.8817 -83.2981 151° Southeast 474 545 37,000  Level Jacksonville Center
Thu 04:41:25 PM 28.2221 -82.8797 151° Southeast 487 560 37,000  Level FlightAware ADS-B
Thu 04:44:12 PM 27.8854 -82.6703 151° Southeast 493 567 37,000  Level FlightAware ADS-B
Thu 04:44:53 PM 27.8060 -82.6170 149° Southeast 499 574 37,000  Level FlightAware ADS-B
Thu 04:45:34 PM 27.7314 -82.5666 149° Southeast 497 572 37,000  Level FlightAware ADS-B
Thu 04:46:09 PM 27.6557 -82.5159 149° Southeast 494 568 37,000  Level FlightAware ADS-B
Thu 04:46:46 PM 27.5882 -82.4711 150° Southeast 493 567 37,000  Level FlightAware ADS-B
Thu 04:47:34 PM 27.4877 -82.4043 149° Southeast 491 565 37,000  Level FlightAware ADS-B
Thu 04:48:15 PM 27.4077 -82.3514 150° Southeast 492 566 37,000  Level FlightAware ADS-B
Thu 04:48:51 PM 27.3410 -82.3073 150° Southeast 493 567 37,000  Level FlightAware ADS-B
Thu 04:50:33 PM 27.1375 -82.1730 150° Southeast 495 570 37,000  Level FlightAware ADS-B
Thu 04:51:35 PM 27.0140 -82.0922 150° Southeast 491 565 37,000  Level FlightAware ADS-B
Thu 04:51:54 PM 26.9734 -82.0752 160° South 471 542 37,000  Level FlightAware ADS-B
Thu 04:52:14 PM 26.9334 -82.0690 172° South 451 519 37,000  Level FlightAware ADS-B
Thu 04:52:35 PM 26.8896 -82.0722 184° South 426 490 37,000  Level FlightAware ADS-B
Thu 04:53:12 PM 26.8177 -82.0836 188° South 422 486 37,000  Level FlightAware ADS-B
Thu 04:53:55 PM 26.7340 -82.0966 188° South 422 486 37,000  Level FlightAware ADS-B
Thu 04:54:34 PM 26.6591 -82.1084 188° South 423 487 37,000  Level FlightAware ADS-B
Thu 04:55:11 PM 26.5920 -82.1191 188° South 423 487 37,000  Level FlightAware ADS-B
Thu 04:55:55 PM 26.5020 -82.1333 188° South 424 488 37,000  Level FlightAware ADS-B
Thu 04:56:34 PM 26.4247 -82.1455 188° South 425 489 37,000  Level FlightAware ADS-B
Thu 04:57:15 PM 26.3468 -82.1577 188° South 426 490 37,000  Level FlightAware ADS-B
Thu 04:57:53 PM 26.2721 -82.1694 188° South 426 490 37,000  Level FlightAware ADS-B
Thu 04:58:34 PM 26.1913 -82.1821 188° South 425 489 37,000  Level FlightAware ADS-B
Thu 04:59:18 PM 26.1101 -82.1947 188° South 427 491 37,000  Level FlightAware ADS-B
Thu 04:59:51 PM 26.0452 -82.2049 188° South 428 493 37,000  Level FlightAware ADS-B
Thu 05:01:26 PM 25.8551 -82.2345 188° South 428 493 37,000  Level FlightAware ADS-B
Thu 05:02:02 PM 25.8017 -82.2444 188° South 438 504 37,000  Level Miami Center
Thu 05:03:02 PM 25.6861 -82.2625 188° South 433 498 37,000  Level Miami Center
Thu 05:04:02 PM 25.5664 -82.2825 189° South 433 498 37,000  Level Miami Center
Thu 05:05:02 PM 25.4489 -82.3000 188° South 428 493 37,000  Level Miami Center
Thu 05:06:02 PM 25.3292 -82.3178 188° South 428 493 37,000 -300 Level Miami Center
Thu 05:07:02 PM 25.2117 -82.3378 189° South 428 493 36,400 -1,200 Descending Miami Center
Thu 05:08:02 PM 25.0814 -82.3547 187° South 434 499 34,600 -1,850 Descending Miami Center
Thu 05:09:02 PM 24.9597 -82.3722 187° South 434 499 32,700 -1,900 Descending Miami Center
Thu 05:10:02 PM 24.8442 -82.3922 189° South 429 494 30,800 -1,800 Descending Miami Center
Thu 05:11:02 PM 24.7328 -82.4100 188° South 424 488 29,100 -1,700 Descending Miami Center
Thu 05:12:02 PM 24.6217 -82.4256 187° South 411 473 27,400 -1,733 Descending Miami Center
Thu 05:14:02 PM 24.4053 -82.4592 188° South 396 456 23,900 -1,700 Descending Miami Center
Thu 05:15:02 PM 24.3044 -82.4753 188° South 390 449 22,300 -950 Descending Miami Center
Thu 05:16:02 PM 24.1994 -82.4911 188° South 383 441 22,000 -150 Descending Miami Center
Thu 05:17:02 PM 24.0944 -82.5092 189° South 383 441 22,000 -50 Level Miami Center
Thu 05:18:02 PM 23.9897 -82.5225 187° South 383 441 21,900 -1,100 Descending Miami Center
Thu 05:19:02 PM 23.8744 -82.5333 185° South 398 458 19,800 -2,100 Descending Miami Center
Thu 05:21:00 PM 23.6437 -82.4710 175° South  Level FlightAware Approximate
Thu 05:28:00 PM 22.9891 -82.4091 180° South  Level Estimated
Thu 05:29:00 PM 22.9891 -82.4091 180° South  Level Estimated
Thu 05:30:00 PM 22.9891 -82.4091 180° South  Level Estimated
Thu 05:31:00 PM 22.9891 -82.4091 180° South  Level Estimated
Thu 05:32:00 PM 22.9891 -82.4091 180° South  Level Estimated
Thu 05:33:00 PM 22.9891 -82.4091 180° South  Level Estimated
Thu 05:34:00 PM 22.9891 -82.4091 180° South  Level Estimated
Thu 05:35:00 PM 22.9891 -82.4091 180° South  Level Estimated
Thu 05:36:00 PM 22.9891 -82.4091 180° South  Level Estimated
Thu 05:37:00 PM 22.9891 -82.4091 180° South  Level Estimated
Thu 05:38:00 PM 22.9891 -82.4091 180° South  Level Estimated
Thu 05:39:00 PM 22.9891 -82.4091 180° South  Level Estimated
Thu 05:40:00 PM 22.9891 -82.4091 180° South  Level Estimated
Thu 05:41:00 PM 22.9891 -82.4091 180° South  Level Estimated
Thu 05:42:00 PM 22.9891 -82.4091 180° South  Level Estimated
Thu 05:43:00 PM 22.9891 -82.4091 180° South  Level Estimated
Thu 05:44:00 PM 22.9891 -82.4091 180° South  Level Estimated
Thu 05:45:00 PM 22.9891 -82.4091 180° South  Level Estimated
Thu 05:46:00 PM 22.9891 -82.4091 180° South  Level Estimated
Thu 05:47:00 PM 22.9891 -82.4091 180° South  Level Estimated
Thu 05:48:00 PM 22.9891 -82.4091 180° South  Level Estimated

Login

Don't have an account? Register now (free) for customized features, flight alerts, and more!